Time;durP1;ratioP1;P1;durP2;ratioP2;P2;SDS_P1;SDS_P2;PMS_P1;PMS_P2;Temp;Humidity;BMP_temperature;BMP_pressure;BME280_temperature;BME280_humidity;BME280_pressure;Samples;Min_cycle;Max_cycle;Signal;HPM_P1;HPM_P2
2021/04/22 00:00:26;;;;;;;51.58;33.10;;;;;;;;;;4944950;28;20030;-47
2021/04/22 00:02:52;;;;;;;51.08;33.28;;;;;;;;;;4945571;28;20850;-47
2021/04/22 00:05:18;;;;;;;40.38;27.10;;;;;;;;;;4944762;28;20484;-47
2021/04/22 00:07:45;;;;;;;41.42;26.20;;;;;;;;;;4944917;28;20094;-47
2021/04/22 00:10:15;;;;;;;64.43;37.97;;;;;;;;;;4945032;28;20141;-47
2021/04/22 00:12:41;;;;;;;47.95;29.70;;;;;;;;;;4950615;28;20031;-47
2021/04/22 00:15:20;;;;;;;41.75;26.52;;;;;;;;;;4950951;28;20057;-47
2021/04/22 00:17:46;;;;;;;76.00;46.90;;;;;;;;;;4949921;28;20019;-46
2021/04/22 00:20:13;;;;;;;51.70;31.88;;;;;;;;;;4945781;28;20034;-48
2021/04/22 00:22:39;;;;;;;35.72;24.83;;;;;;;;;;4955672;29;20032;-48
2021/04/22 00:25:08;;;;;;;33.40;23.70;;;;;;;;;;4955395;28;20027;-47
2021/04/22 00:27:34;;;;;;;50.80;31.60;;;;;;;;;;4955482;29;20514;-48
2021/04/22 00:30:01;;;;;;;30.38;20.63;;;;;;;;;;4955335;29;20027;-48
2021/04/22 00:32:27;;;;;;;39.92;23.95;;;;;;;;;;4955476;29;20082;-47
2021/04/22 00:34:53;;;;;;;48.42;28.83;;;;;;;;;;4959770;28;20119;-47
2021/04/22 00:37:19;;;;;;;64.72;37.28;;;;;;;;;;4962996;28;20110;-47
2021/04/22 00:39:45;;;;;;;38.25;24.83;;;;;;;;;;4962586;28;20063;-47
2021/04/22 00:42:11;;;;;;;52.83;29.90;;;;;;;;;;4964466;28;20381;-47
2021/04/22 00:44:38;;;;;;;50.72;30.38;;;;;;;;;;4963291;28;20078;-47
2021/04/22 00:47:04;;;;;;;90.60;48.72;;;;;;;;;;4963572;28;20027;-48
2021/04/22 00:49:30;;;;;;;42.08;26.38;;;;;;;;;;4947141;28;20031;-47
2021/04/22 00:51:57;;;;;;;37.35;23.38;;;;;;;;;;4962694;28;20473;-47
2021/04/22 00:54:23;;;;;;;44.30;27.80;;;;;;;;;;4956261;28;20040;-47
2021/04/22 00:56:50;;;;;;;52.72;33.90;;;;;;;;;;4955080;29;20027;-47
2021/04/22 00:59:16;;;;;;;71.88;40.03;;;;;;;;;;4955024;29;20187;-47
2021/04/22 01:01:42;;;;;;;65.45;36.92;;;;;;;;;;4954884;29;20042;-48
2021/04/22 01:04:08;;;;;;;54.95;31.65;;;;;;;;;;4954992;28;20031;-47
2021/04/22 01:06:35;;;;;;;38.78;27.10;;;;;;;;;;4954835;29;20389;-47
2021/04/22 01:09:02;;;;;;;49.30;31.52;;;;;;;;;;4955127;28;20027;-47
2021/04/22 01:11:30;;;;;;;34.17;24.33;;;;;;;;;;4954916;28;20019;-47
2021/04/22 01:13:56;;;;;;;81.47;45.72;;;;;;;;;;4955020;29;20460;-47
2021/04/22 01:16:22;;;;;;;31.08;22.15;;;;;;;;;;4954956;29;20070;-46
2021/04/22 01:18:49;;;;;;;46.08;27.23;;;;;;;;;;4955040;29;20102;-47
2021/04/22 01:21:19;;;;;;;42.35;28.52;;;;;;;;;;4954817;29;20541;-47
2021/04/22 01:23:45;;;;;;;24.57;18.23;;;;;;;;;;4954896;29;20110;-47
2021/04/22 01:26:13;;;;;;;44.85;28.70;;;;;;;;;;4954946;29;20082;-47
2021/04/22 01:28:39;;;;;;;31.52;21.95;;;;;;;;;;4954770;29;20106;-48
2021/04/22 01:31:05;;;;;;;38.20;25.45;;;;;;;;;;4954853;28;20035;-48
2021/04/22 01:33:31;;;;;;;29.02;19.98;;;;;;;;;;4954979;29;20395;-48
2021/04/22 01:35:58;;;;;;;47.17;29.15;;;;;;;;;;4954635;28;20027;-47
2021/04/22 01:38:26;;;;;;;30.60;20.40;;;;;;;;;;4954718;29;20027;-47
2021/04/22 01:40:52;;;;;;;25.27;18.23;;;;;;;;;;4954543;29;20035;-46
2021/04/22 01:43:18;;;;;;;27.80;19.00;;;;;;;;;;4954802;29;20024;-48
2021/04/22 01:45:46;;;;;;;32.28;20.33;;;;;;;;;;4954661;29;20031;-48
2021/04/22 01:48:13;;;;;;;22.73;17.08;;;;;;;;;;4954794;29;20023;-49
2021/04/22 01:50:39;;;;;;;27.15;19.20;;;;;;;;;;4957766;28;20086;-48
2021/04/22 01:53:06;;;;;;;22.42;15.98;;;;;;;;;;4958206;29;20532;-47
2021/04/22 01:55:42;;;;;;;24.48;16.70;;;;;;;;;;4958249;29;20031;-49
2021/04/22 01:58:10;;;;;;;24.63;18.20;;;;;;;;;;4958171;29;20034;-49
2021/04/22 02:00:40;;;;;;;22.98;14.90;;;;;;;;;;4958140;29;20110;-48
2021/04/22 02:03:07;;;;;;;28.92;18.48;;;;;;;;;;4958116;29;20031;-48
2021/04/22 02:05:34;;;;;;;27.55;18.50;;;;;;;;;;4958052;29;20050;-47
2021/04/22 02:08:00;;;;;;;22.25;16.10;;;;;;;;;;4958156;29;20034;-48
2021/04/22 02:10:26;;;;;;;25.13;15.98;;;;;;;;;;4958086;29;20055;-49
2021/04/22 02:12:52;;;;;;;25.20;17.17;;;;;;;;;;4958041;28;20031;-47
2021/04/22 02:15:22;;;;;;;24.65;15.70;;;;;;;;;;4958068;29;20078;-48
2021/04/22 02:17:48;;;;;;;22.10;16.13;;;;;;;;;;4958057;28;20102;-48
2021/04/22 02:20:15;;;;;;;24.95;17.67;;;;;;;;;;4957858;29;20495;-47
2021/04/22 02:22:41;;;;;;;27.35;15.70;;;;;;;;;;4957614;29;20045;-49
2021/04/22 02:25:09;;;;;;;21.50;14.05;;;;;;;;;;4957758;29;20051;-48
2021/04/22 02:27:38;;;;;;;21.48;14.57;;;;;;;;;;4957720;29;20107;-49
2021/04/22 02:30:06;;;;;;;28.08;16.00;;;;;;;;;;4957753;29;20102;-48
2021/04/22 02:32:32;;;;;;;21.52;13.98;;;;;;;;;;4957692;29;20055;-48
2021/04/22 02:34:58;;;;;;;23.30;15.38;;;;;;;;;;4957511;29;20039;-47
2021/04/22 02:37:24;;;;;;;20.88;14.52;;;;;;;;;;4957413;29;20526;-48
2021/04/22 02:39:50;;;;;;;25.95;16.30;;;;;;;;;;4957420;28;20114;-52
2021/04/22 02:42:16;;;;;;;24.63;16.35;;;;;;;;;;4957258;28;20042;-48
2021/04/22 02:44:42;;;;;;;22.95;14.60;;;;;;;;;;4957208;29;20027;-48
2021/04/22 02:47:08;;;;;;;18.90;13.43;;;;;;;;;;4957308;29;20476;-48
2021/04/22 02:49:35;;;;;;;21.63;15.23;;;;;;;;;;4957288;29;20035;-48
2021/04/22 02:52:01;;;;;;;19.50;15.27;;;;;;;;;;4957373;29;20024;-48
2021/04/22 02:54:27;;;;;;;20.33;14.20;;;;;;;;;;4957256;29;20035;-50
2021/04/22 02:56:53;;;;;;;22.17;14.77;;;;;;;;;;4956947;29;20476;-47
2021/04/22 02:59:19;;;;;;;20.10;13.43;;;;;;;;;;4957193;29;20030;-49
2021/04/22 03:01:45;;;;;;;19.63;13.68;;;;;;;;;;4956119;28;20195;-48
2021/04/22 03:04:11;;;;;;;17.42;12.98;;;;;;;;;;4957004;29;20492;-48
2021/04/22 03:06:37;;;;;;;21.17;13.43;;;;;;;;;;4956680;29;20051;-48
2021/04/22 03:09:04;;;;;;;20.00;14.52;;;;;;;;;;4956802;29;20027;-49
2021/04/22 03:11:30;;;;;;;19.15;13.60;;;;;;;;;;4956898;28;20028;-48
2021/04/22 03:13:56;;;;;;;21.20;13.32;;;;;;;;;;4956844;28;20029;-48
2021/04/22 03:16:24;;;;;;;22.70;13.02;;;;;;;;;;4956943;28;20035;-48
2021/04/22 03:18:50;;;;;;;22.58;12.75;;;;;;;;;;4956730;29;20027;-48
2021/04/22 03:21:17;;;;;;;16.80;11.45;;;;;;;;;;4956694;28;20094;-48
2021/04/22 03:23:43;;;;;;;21.27;12.25;;;;;;;;;;4956563;29;20039;-48
2021/04/22 03:26:09;;;;;;;18.52;12.38;;;;;;;;;;4956720;29;20054;-46
2021/04/22 03:28:35;;;;;;;18.70;12.00;;;;;;;;;;4956364;29;20027;-47
2021/04/22 03:31:01;;;;;;;18.10;12.13;;;;;;;;;;4956568;29;20083;-48
2021/04/22 03:33:27;;;;;;;26.30;13.18;;;;;;;;;;4956466;28;20090;-48
2021/04/22 03:35:53;;;;;;;23.08;13.00;;;;;;;;;;4956383;29;20035;-47
2021/04/22 03:38:19;;;;;;;15.63;11.77;;;;;;;;;;4956333;29;20034;-48
2021/04/22 03:40:48;;;;;;;18.40;11.75;;;;;;;;;;4956185;29;20035;-47
2021/04/22 03:43:14;;;;;;;22.85;12.30;;;;;;;;;;4956220;29;20060;-47
2021/04/22 03:45:42;;;;;;;20.00;12.25;;;;;;;;;;4956379;29;20023;-48
2021/04/22 03:48:08;;;;;;;19.85;11.80;;;;;;;;;;4956290;29;20084;-47
2021/04/22 03:50:34;;;;;;;16.48;12.05;;;;;;;;;;4956066;29;20015;-47
2021/04/22 03:53:00;;;;;;;23.08;13.55;;;;;;;;;;4956171;28;20036;-48
2021/04/22 03:55:28;;;;;;;24.38;15.10;;;;;;;;;;4956122;29;20472;-48
2021/04/22 03:57:54;;;;;;;23.08;14.20;;;;;;;;;;4956342;29;20494;-49
2021/04/22 04:00:23;;;;;;;37.17;25.45;;;;;;;;;;4956263;29;20027;-47
2021/04/22 04:02:51;;;;;;;45.88;33.70;;;;;;;;;;4955918;29;20035;-47
2021/04/22 04:05:17;;;;;;;71.13;49.85;;;;;;;;;;4956043;29;20102;-47
2021/04/22 04:07:43;;;;;;;77.65;57.75;;;;;;;;;;4955789;29;20415;-48
2021/04/22 04:10:10;;;;;;;102.75;77.95;;;;;;;;;;4955802;29;20023;-48
2021/04/22 04:12:37;;;;;;;120.40;93.25;;;;;;;;;;4955684;28;20066;-49
2021/04/22 04:15:04;;;;;;;114.32;84.30;;;;;;;;;;4955917;28;20046;-48
2021/04/22 04:17:30;;;;;;;94.53;69.18;;;;;;;;;;4955917;29;20106;-48
2021/04/22 04:19:56;;;;;;;76.95;53.83;;;;;;;;;;4955758;29;20031;-51
2021/04/22 04:22:22;;;;;;;53.78;34.20;;;;;;;;;;4955399;29;20043;-48
2021/04/22 04:24:48;;;;;;;23.85;16.27;;;;;;;;;;4955552;28;20464;-46
2021/04/22 04:27:14;;;;;;;26.90;15.20;;;;;;;;;;4955578;29;20430;-46
2021/04/22 04:29:40;;;;;;;23.27;13.10;;;;;;;;;;4955426;29;20059;-47
2021/04/22 04:32:06;;;;;;;23.15;12.93;;;;;;;;;;4955447;29;20023;-48
2021/04/22 04:34:32;;;;;;;19.88;13.32;;;;;;;;;;4955293;29;20065;-47
2021/04/22 04:37:02;;;;;;;25.55;15.15;;;;;;;;;;4955089;29;20027;-47
2021/04/22 04:39:28;;;;;;;33.15;17.17;;;;;;;;;;4955180;28;20495;-47
2021/04/22 04:41:54;;;;;;;19.83;12.88;;;;;;;;;;4937649;29;20070;-47
2021/04/22 04:44:20;;;;;;;24.13;14.13;;;;;;;;;;4955076;28;20195;-48
2021/04/22 04:46:48;;;;;;;34.95;19.73;;;;;;;;;;4955199;29;20024;-48
2021/04/22 04:49:19;;;;;;;41.38;24.95;;;;;;;;;;4955186;29;20031;-48
2021/04/22 04:51:45;;;;;;;36.03;22.02;;;;;;;;;;4955231;29;20065;-49
2021/04/22 04:54:13;;;;;;;25.52;15.45;;;;;;;;;;4955110;29;20070;-46
2021/04/22 04:56:40;;;;;;;24.17;16.10;;;;;;;;;;4955063;28;20026;-45
2021/04/22 04:59:06;;;;;;;22.17;14.02;;;;;;;;;;4955262;29;20388;-49
2021/04/22 05:01:32;;;;;;;22.58;14.18;;;;;;;;;;4937805;29;20039;-47
2021/04/22 05:03:58;;;;;;;32.20;19.25;;;;;;;;;;4955229;29;20027;-47
2021/04/22 05:06:24;;;;;;;30.63;16.80;;;;;;;;;;4954805;29;20468;-48
2021/04/22 05:08:50;;;;;;;22.17;13.63;;;;;;;;;;4955116;29;20035;-48
2021/04/22 05:11:18;;;;;;;23.05;14.88;;;;;;;;;;4954930;29;20019;-48
2021/04/22 05:13:44;;;;;;;17.13;12.98;;;;;;;;;;4955286;28;20151;-49
2021/04/22 05:16:11;;;;;;;22.75;12.48;;;;;;;;;;4955185;29;20023;-48
2021/04/22 05:18:39;;;;;;;23.02;13.57;;;;;;;;;;4955114;29;20041;-49
2021/04/22 05:21:05;;;;;;;18.30;12.88;;;;;;;;;;4937731;29;20095;-49
2021/04/22 05:23:31;;;;;;;21.48;11.07;;;921.70;460.80;;;;;;4954901;28;20068;-49
2021/04/22 05:25:56;;;;;;;21.00;11.85;;;922.30;435.20;;;;;;4958420;29;20051;-48
2021/04/22 05:28:22;;;;;;;21.40;11.65;;;947.30;409.60;;;;;;4941029;28;20793;-48
2021/04/22 05:30:49;;;;;;;22.42;11.77;;;947.60;409.60;;;;;;4958600;29;20029;-49
2021/04/22 05:33:15;;;;;;;15.52;9.55;;;;;;;;;;4958591;29;20054;-48
2021/04/22 05:35:42;;;;;;;13.35;11.05;;;973.40;409.60;;;;;;4958458;29;20071;-49
2021/04/22 05:38:08;;;;;;;15.02;9.57;;;;;;;;;;4958625;29;20514;-49
2021/04/22 05:40:34;;;;;;;18.63;10.63;;;;;;;;;;4958373;28;20035;-49
2021/04/22 05:43:00;;;;;;;16.67;10.18;;;;;;;;;;4958231;29;20035;-49
2021/04/22 05:45:27;;;;;;;16.52;10.27;;;;;;;;;;4958482;28;20075;-49
2021/04/22 05:47:55;;;;;;;12.57;8.77;;;;;;;;;;4958446;29;20027;-50
2021/04/22 05:50:22;;;;;;;10.25;8.52;;;;;;;;;;4958390;29;20031;-48
2021/04/22 05:52:48;;;;;;;19.00;9.35;;;;;;;;;;4958210;28;20070;-48
2021/04/22 05:55:15;;;;;;;11.60;9.32;;;;;;;;;;4958086;29;20078;-49
2021/04/22 05:57:43;;;;;;;22.00;9.35;;;;;;;;;;4957956;29;20027;-49
2021/04/22 06:00:11;;;;;;;15.43;9.73;;;;;;;;;;4958381;29;20444;-49
2021/04/22 06:02:40;;;;;;;8.38;7.32;;;;;;;;;;4957989;29;20110;-47
2021/04/22 06:05:06;;;;;;;8.88;7.55;;;;;;;;;;4957914;29;20027;-47
2021/04/22 06:07:32;;;;;;;14.70;7.72;;;;;;;;;;4957781;29;20138;-47
2021/04/22 06:10:00;;;;;;;11.75;6.80;;;;;;;;;;4958024;29;20038;-47
2021/04/22 06:12:26;;;;;;;13.10;7.05;;;;;;;;;;4957987;29;20027;-48
2021/04/22 06:14:52;;;;;;;9.80;6.22;;;;;;;;;;4957954;29;20023;-48
2021/04/22 06:17:18;;;;;;;8.45;6.47;;;640.20;768.00;;;;;;4957993;29;20106;-47
2021/04/22 06:19:44;;;;;;;9.02;6.50;;;;;;;;;;4957862;28;20507;-47
2021/04/22 06:22:12;;;;;;;14.25;8.85;;;;;;;;;;4957687;29;20038;-48
2021/04/22 06:24:38;;;;;;;10.77;7.00;;;;;;;;;;4957550;28;20019;-48
2021/04/22 06:27:05;;;;;;;13.88;7.10;;;;;;;;;;4957717;29;20026;-48
2021/04/22 06:29:31;;;;;;;11.65;6.97;;;;;;;;;;4957621;29;20102;-48
2021/04/22 06:31:57;;;;;;;17.30;10.70;;;;;;;;;;4957574;29;20031;-48
2021/04/22 06:34:23;;;;;;;10.88;6.47;;;;;;;;;;4957621;29;20531;-48
2021/04/22 06:36:50;;;;;;;11.60;6.35;;;;;;;;;;4956266;28;20110;-47
2021/04/22 06:39:16;;;;;;;12.38;8.15;;;;;;;;;;4957459;29;20059;-47
2021/04/22 06:41:42;;;;;;;10.10;7.30;;;;;;;;;;4957221;29;20532;-46
2021/04/22 06:44:11;;;;;;;27.38;16.17;;;;;;;;;;4957543;29;20412;-47
2021/04/22 06:46:39;;;;;;;15.57;8.40;;;;;;;;;;4957181;29;20027;-47
2021/04/22 06:49:05;;;;;;;26.42;12.52;;;;;;;;;;4957419;29;20086;-48
2021/04/22 06:51:31;;;;;;;12.30;8.00;;;;;;;;;;4957274;29;20484;-48
2021/04/22 06:54:00;;;;;;;12.63;9.32;;;;;;;;;;4957083;29;20023;-47
2021/04/22 06:56:26;;;;;;;17.10;11.02;;;;;;;;;;4957173;29;20492;-48
2021/04/22 06:58:54;;;;;;;12.30;8.00;;;;;;;;;;4957170;29;20023;-47
2021/04/22 07:01:20;;;;;;;22.38;11.65;;;;;;;;;;4956933;29;20494;-47
2021/04/22 07:03:47;;;;;;;23.98;12.38;;;;;;;;;;4956989;29;20039;-46
2021/04/22 07:06:13;;;;;;;16.20;7.85;;;;;;;;;;4956645;29;20074;-47
2021/04/22 07:08:41;;;;;;;19.75;12.80;;;;;;;;;;4956944;29;20031;-47
2021/04/22 07:11:07;;;;;;;17.75;9.43;;;;;;;;;;4956939;29;20468;-46
2021/04/22 07:13:33;;;;;;;15.65;9.15;;;;;;;;;;4957074;29;20019;-47
2021/04/22 07:15:59;;;;;;;27.77;18.33;;;;;;;;;;4956654;29;20110;-46
2021/04/22 07:18:25;;;;;;;17.60;9.05;;;;;;;;;;4956660;29;20078;-46
2021/04/22 07:20:51;;;;;;;35.67;19.83;;;;;;;;;;4956675;29;20031;-48
2021/04/22 07:23:17;;;;;;;28.98;16.48;;;;;;;;;;4956282;28;20039;-46
2021/04/22 07:25:44;;;;;;;18.80;10.60;;;;;;;;;;4956424;28;20030;-46
2021/04/22 07:28:11;;;;;;;16.33;10.23;;;;;;;;;;4956085;28;20125;-46
2021/04/22 07:30:38;;;;;;;20.33;11.93;;;;;;;;;;4956454;29;20459;-45
2021/04/22 07:33:05;;;;;;;27.90;18.02;;;;;;;;;;4956397;28;20023;-44
2021/04/22 07:35:31;;;;;;;47.00;27.88;;;;;;;;;;4956449;29;20042;-43
2021/04/22 07:37:57;;;;;;;23.52;13.63;;;;;;;;;;4956334;29;20023;-44
2021/04/22 07:40:24;;;;;;;14.55;7.75;;;;;;;;;;4956089;29;20030;-45
2021/04/22 07:42:51;;;;;;;16.88;11.20;;;;;;;;;;4956068;28;20035;-45
2021/04/22 07:45:18;;;;;;;17.25;12.40;;;;;;;;;;4956349;29;20380;-45
2021/04/22 07:47:44;;;;;;;34.58;20.73;;;;;;;;;;4955644;28;20024;-46
2021/04/22 07:50:12;;;;;;;65.45;42.15;;;;;;;;;;4956063;28;20020;-47
2021/04/22 07:52:38;;;;;;;44.08;18.50;;;;;;;;;;4961537;28;20055;-47
2021/04/22 07:55:08;;;;;;;79.55;44.90;;;;;;;;;;4957511;28;20035;-46
2021/04/22 07:57:35;;;;;;;25.55;13.48;;;;;;;;;;4956133;29;20034;-47
2021/04/22 08:00:01;;;;;;;27.40;14.75;;;;;;;;;;4956086;29;20051;-46
2021/04/22 08:02:27;;;;;;;52.33;25.20;;;;;;;;;;4948244;28;20035;-46
2021/04/22 08:04:53;;;;;;;20.48;11.70;;;;;;;;;;4946182;28;20045;-46
2021/04/22 08:07:19;;;;;;;21.70;12.85;;;;;;;;;;4945183;28;20065;-46
2021/04/22 08:09:45;;;;;;;44.78;26.85;;;;;;;;;;4944946;28;20026;-46
2021/04/22 08:12:12;;;;;;;44.40;24.30;;;;;;;;;;4945062;28;20024;-47
2021/04/22 08:14:38;;;;;;;52.67;32.85;;;;;;;;;;4945244;28;20035;-47
2021/04/22 08:17:04;;;;;;;65.20;38.08;;;;;;;;;;4945914;28;20070;-46
2021/04/22 08:19:32;;;;;;;28.65;17.55;;;;;;;;;;4946547;28;20126;-47
2021/04/22 08:21:58;;;;;;;46.72;17.13;;;;;;;;;;4945958;28;20031;-47
2021/04/22 08:24:25;;;;;;;24.17;11.13;;;;;;;;;;4944836;28;20430;-46
2021/04/22 08:26:51;;;;;;;18.70;7.78;;;;;;;;;;4948394;28;20023;-47
2021/04/22 08:29:17;;;;;;;29.67;12.23;;;;;;;;;;4946947;28;20034;-46
2021/04/22 08:31:43;;;;;;;11.48;6.28;;;;;;;;;;4944997;28;20030;-47
2021/04/22 08:34:09;;;;;;;24.25;10.38;;;;;;;;;;4944880;28;20034;-48
2021/04/22 08:36:38;;;;;;;27.90;11.15;;;;;;;;;;4944631;28;20042;-48
2021/04/22 08:39:06;;;;;;;8.32;5.45;;;;;;;;;;4944381;28;20711;-48
2021/04/22 08:41:34;;;;;;;16.10;10.65;;;;;;;;;;4946694;28;20484;-47
2021/04/22 08:44:02;;;;;;;30.65;17.98;;;;;;;;;;4944619;28;20054;-48
2021/04/22 08:46:29;;;;;;;54.40;31.45;;;;;;;;;;4944500;28;20023;-48
2021/04/22 08:48:56;;;;;;;16.42;10.93;;;;;;;;;;4945739;28;20042;-49
2021/04/22 08:51:22;;;;;;;50.35;32.88;;;;;;;;;;4946129;28;20022;-48
2021/04/22 08:53:49;;;;;;;16.42;11.55;;;;;;;;;;4944459;28;20041;-47
2021/04/22 08:56:16;;;;;;;24.85;15.68;;;;;;;;;;4945408;28;20070;-47
2021/04/22 08:58:43;;;;;;;69.43;46.00;;;;;;;;;;4944910;28;20118;-45
2021/04/22 09:01:11;;;;;;;64.47;39.17;;;;;;;;;;4948436;28;20038;-48
2021/04/22 09:03:37;;;;;;;54.78;27.77;;;;;;;;;;4948206;28;20126;-46
2021/04/22 09:06:03;;;;;;;49.35;32.28;;;;;;;;;;4947968;28;20032;-47
2021/04/22 09:08:32;;;;;;;20.58;13.93;;;;;;;;;;4948558;28;20086;-48
2021/04/22 09:10:59;;;;;;;28.42;16.23;;;;;;;;;;4948733;28;20023;-49
2021/04/22 09:13:26;;;;;;;22.17;13.05;;;;;;;;;;4948184;28;20020;-47
2021/04/22 09:15:59;;;;;;;51.45;35.30;;;;;;;;;;4948436;28;20026;-47
2021/04/22 09:18:25;;;;;;;63.40;41.10;;;;;;;;;;4948167;28;20054;-48
2021/04/22 09:20:52;;;;;;;63.25;47.60;;;;;;;;;;4947871;28;20035;-48
2021/04/22 09:23:21;;;;;;;41.08;32.58;;;;;;;;;;4947977;28;20043;-49
2021/04/22 09:25:54;;;;;;;70.55;48.63;;;;;;;;;;4945511;28;20343;-48
2021/04/22 09:28:20;;;;;;;35.25;22.27;;;;;;;;;;4949469;28;20097;-49
2021/04/22 09:30:47;;;;;;;32.08;22.98;;;;;;;;;;4947672;28;20090;-48
2021/04/22 09:33:27;;;;;;;15.00;11.23;;;;;;;;;;4948168;28;20111;-48
2021/04/22 09:35:54;;;;;;;103.82;70.50;;;;;;;;;;4947794;28;20031;-48
2021/04/22 09:38:20;;;;;;;11.93;8.93;;;;;;;;;;4947721;28;20405;-48
2021/04/22 09:40:46;;;;;;;42.58;30.02;;;;;;;;;;4949712;28;20027;-48
2021/04/22 09:43:14;;;;;;;45.13;30.40;;;;;;;;;;4950603;28;20150;-48
2021/04/22 09:45:45;;;;;;;20.15;14.32;;;;;;;;;;4954628;28;20015;-49
2021/04/22 09:48:11;;;;;;;;;;;;;;;;;;4948185;28;20133;-46
2021/04/22 09:50:37;;;;;;;24.88;16.95;;;;;;;;;;4947563;28;20428;-47
2021/04/22 09:53:04;;;;;;;8.93;7.22;;;;;;;;;;4947548;28;20056;-48
2021/04/22 09:55:31;;;;;;;23.52;16.10;;;;;;;;;;4947579;28;20031;-49
2021/04/22 09:57:57;;;;;;;25.88;18.85;;;;;;;;;;4947542;28;20027;-48
2021/04/22 10:00:28;;;;;;;25.30;16.63;;;;;;;;;;4947462;28;20046;-48
2021/04/22 10:02:56;;;;;;;28.63;18.30;;;;;;;;;;4947505;28;20027;-49
2021/04/22 10:05:27;;;;;;;21.35;10.23;;;;;;;;;;4945295;28;20488;-47
2021/04/22 10:07:53;;;;;;;;;;;;;;;;;;4947385;28;20042;-47
2021/04/22 10:10:23;;;;;;;16.05;11.75;;;;;;;;;;4947220;28;19917;-47
2021/04/22 10:12:49;;;;;;;11.65;8.65;;;;;;;;;;4947236;28;20891;-47
2021/04/22 10:15:18;;;;;;;18.33;10.57;;;;;;;;;;4948390;28;20503;-47
2021/04/22 10:18:02;;;;;;;15.32;10.30;;;;;;;;;;4949104;28;20024;-46
2021/04/22 10:20:31;;;;;;;14.23;8.55;;;;;;;;;;4946892;28;20031;-45
2021/04/22 10:22:58;;;;;;;12.02;8.77;;;;;;;;;;4948177;28;20825;-46
2021/04/22 10:25:25;;;;;;;29.17;17.33;;;;;;;;;;4946879;28;20127;-46
2021/04/22 10:27:52;;;;;;;43.63;22.55;;;;;;;;;;4947263;28;20794;-45
2021/04/22 10:30:20;;;;;;;59.55;30.85;;;;;;;;;;4946998;28;20523;-47
2021/04/22 10:32:47;;;;;;;17.45;9.60;;;;;;;;;;4947581;28;20889;-45
2021/04/22 10:35:14;;;;;;;26.70;14.45;;;;;;;;;;4947613;28;20031;-46
2021/04/22 10:37:42;;;;;;;45.72;25.52;;;;;;;;;;4946751;28;20056;-46
2021/04/22 10:40:09;;;;;;;15.73;8.63;;;;;;;;;;4946830;28;20023;-47
2021/04/22 10:42:36;;;;;;;18.27;9.50;;;;;;;;;;4946443;28;20031;-47
2021/04/22 10:45:03;;;;;;;14.95;9.85;;;;;;;;;;4946859;28;20284;-45
2021/04/22 10:47:30;;;;;;;21.02;11.75;;;;;;;;;;4946365;28;20030;-45
2021/04/22 10:49:56;;;;;;;10.77;8.15;;;;;;;;;;4948407;28;20035;-46
2021/04/22 10:52:22;;;;;;;36.90;22.75;;;;;;;;;;4946561;28;20030;-46
2021/04/22 10:54:50;;;;;;;11.98;9.35;;;;;;;;;;4946231;28;20134;-47
2021/04/22 10:57:18;;;;;;;62.92;28.80;;;;;;;;;;4947546;28;20841;-47
2021/04/22 10:59:45;;;;;;;21.05;15.32;;;;;;;;;;4947223;28;20138;-47
2021/04/22 11:02:18;;;;;;;12.65;7.78;;;;;;;;;;4945939;28;20507;-46
2021/04/22 11:04:45;;;;;;;51.45;32.75;;;;;;;;;;4947368;28;20055;-47
2021/04/22 11:07:20;;;;;;;14.40;9.70;;;;;;;;;;4946054;28;20088;-47
2021/04/22 11:09:46;;;;;;;14.25;8.02;;;;;;;;;;4946318;28;20034;-47
2021/04/22 11:12:12;;;;;;;13.60;7.75;;;;;;;;;;4947227;28;20049;-49
2021/04/22 11:14:46;;;;;;;17.02;7.05;;;;;;;;;;4946245;28;20146;-48
2021/04/22 11:17:13;;;;;;;23.70;15.00;;;;;;;;;;4945841;28;20023;-48
2021/04/22 11:19:43;;;;;;;25.20;15.93;;;;;;;;;;4947382;28;20514;-47
2021/04/22 11:22:21;;;;;;;19.95;11.45;;;;;;;;;;4944278;28;20420;-48
2021/04/22 11:24:52;;;;;;;47.72;29.33;;;;;;;;;;4945159;28;20035;-47
2021/04/22 11:27:18;;;;;;;26.47;18.47;;;;;;;;;;4945217;28;20019;-49
2021/04/22 11:29:56;;;;;;;22.20;13.55;;;;;;;;;;4945345;28;21047;-48
2021/04/22 11:32:26;;;;;;;14.13;6.78;;;;;;;;;;4945318;28;20497;-47
2021/04/22 11:34:53;;;;;;;68.00;43.65;;;;;;;;;;4945805;28;20106;-49
2021/04/22 11:37:21;;;;;;;61.35;35.50;;;;;;;;;;4947560;28;20442;-48
2021/04/22 11:39:48;;;;;;;6.50;4.78;;;;;;;;;;4931521;28;20975;-47
2021/04/22 11:42:16;;;;;;;17.15;8.65;;;;;;;;;;4948903;28;20110;-48
2021/04/22 11:44:52;;;;;;;36.63;23.70;;;;;;;;;;4950405;28;20459;-48
2021/04/22 11:47:32;;;;;;;13.13;9.45;;;;;;;;;;4950978;28;20495;-48
2021/04/22 11:50:05;;;;;;;6.60;4.72;;;;;;;;;;4951535;28;20429;-48
2021/04/22 11:52:42;;;;;;;4.75;3.70;;;;;;;;;;4947074;28;20054;-48
2021/04/22 11:55:13;;;;;;;19.42;10.82;;;;;;;;;;4951632;28;20484;-48
2021/04/22 11:57:48;;;;;;;7.13;3.70;;;;;;;;;;4946796;28;20026;-46
2021/04/22 12:00:14;;;;;;;16.70;9.40;;;;;;;;;;4950184;28;20384;-46
2021/04/22 12:02:40;;;;;;;24.98;15.55;;;;;;;;;;4946687;28;20487;-47
2021/04/22 12:05:07;;;;;;;12.73;8.32;;;;;;;;;;4945052;28;20090;-47
2021/04/22 12:07:33;;;;;;;21.25;12.30;;;;;;;;;;4944751;28;20055;-47
2021/04/22 12:10:01;;;;;;;28.98;17.35;;;;;;;;;;4946017;28;20069;-47
2021/04/22 12:12:31;;;;;;;24.15;17.05;;;;;;;;;;4946172;28;20030;-47
2021/04/22 12:14:58;;;;;;;22.20;13.20;;;;;;;;;;4946228;28;20190;-49
2021/04/22 12:17:31;;;;;;;16.42;9.90;;;;;;;;;;4944883;28;20341;-47
2021/04/22 12:20:18;;;;;;;48.45;31.65;;;;;;;;;;4944778;28;20514;-47
2021/04/22 12:22:46;;;;;;;30.58;17.83;;;;;;;;;;4944705;28;20043;-46
2021/04/22 12:25:20;;;;;;;16.63;9.30;;;;;;;;;;4938464;28;20403;-46
2021/04/22 12:27:53;;;;;;;9.10;6.40;;;;;;;;;;4945011;28;20550;-47
2021/04/22 12:30:31;;;;;;;31.77;17.90;;;;;;;;;;4944862;28;20372;-47
2021/04/22 12:33:05;;;;;;;53.35;26.65;;;;;;;;;;4944908;28;20499;-49
2021/04/22 12:35:32;;;;;;;74.07;39.03;;;;;;;;;;4944552;28;20039;-47
2021/04/22 12:37:59;;;;;;;25.17;14.52;;;;;;;;;;4944460;28;20031;-48
2021/04/22 12:40:26;;;;;;;36.13;17.50;;;;;;;;;;4944751;28;20114;-48
2021/04/22 12:42:59;;;;;;;35.05;18.70;;;;;;;;;;4944523;28;20034;-48
2021/04/22 12:45:25;;;;;;;38.72;21.65;;;;;;;;;;4944946;28;20542;-48
2021/04/22 12:47:56;;;;;;;18.80;8.82;;;;;;;;;;4945801;28;20086;-47
2021/04/22 12:50:27;;;;;;;9.40;6.05;;;;;;;;;;4945461;28;20063;-47
2021/04/22 12:53:22;;;;;;;18.83;8.63;;;;;;;;;;4944663;28;20014;-47
2021/04/22 12:55:58;;;;;;;10.27;5.15;;;;;;;;;;4943059;28;20511;-47
2021/04/22 12:58:35;;;;;;;16.67;9.52;;;;;;;;;;4944651;28;20055;-48
2021/04/22 13:01:02;;;;;;;9.77;5.60;;;;;;;;;;4944789;28;20385;-47
2021/04/22 13:03:30;;;;;;;12.88;6.72;;;;;;;;;;4944445;28;20047;-48
2021/04/22 13:05:57;;;;;;;15.68;5.93;;;;;;;;;;4944417;28;20028;-46
2021/04/22 13:08:23;;;;;;;12.55;6.78;;;;;;;;;;4944429;28;20028;-47
2021/04/22 13:10:51;;;;;;;31.00;16.88;;;;;;;;;;4944501;28;20031;-46
2021/04/22 13:13:17;;;;;;;16.38;10.82;;;;;;;;;;4944703;28;20106;-46
2021/04/22 13:15:43;;;;;;;16.30;10.60;;;;;;;;;;4944577;28;20391;-47
2021/04/22 13:18:16;;;;;;;24.55;16.00;;;;;;;;;;4944748;28;20358;-46
2021/04/22 13:20:44;;;;;;;29.10;14.10;;;;;;;;;;4944167;28;20078;-46
2021/04/22 13:23:11;;;;;;;27.70;14.05;;;;;;;;;;4946238;28;20039;-47
2021/04/22 13:25:38;;;;;;;133.20;71.50;;;;;;;;;;4945145;28;20019;-46
2021/04/22 13:28:11;;;;;;;37.35;17.52;;;;;;;;;;4944109;28;20031;-47
2021/04/22 13:30:38;;;;;;;37.97;18.08;;;;;;;;;;4943990;28;20700;-47
2021/04/22 13:33:05;;;;;;;11.45;7.60;;;;;;;;;;4944974;28;20081;-47
2021/04/22 13:35:32;;;;;;;9.95;5.40;;;;;;;;;;4945158;28;20065;-47
2021/04/22 13:38:01;;;;;;;9.65;6.13;;;;;;;;;;4945042;28;20032;-47
2021/04/22 13:40:27;;;;;;;27.98;18.75;;;;;;;;;;4944140;28;20843;-47
2021/04/22 13:42:54;;;;;;;36.53;19.15;;;;;;;;;;4944166;28;20153;-47
2021/04/22 13:45:20;;;;;;;72.57;51.05;;;;;;;;;;4944926;28;20475;-46
2021/04/22 13:47:46;;;;;;;52.22;31.90;;;;;;;;;;4947741;28;20523;-47
2021/04/22 13:50:12;;;;;;;31.85;20.50;;;;;;;;;;4947474;28;20448;-48
2021/04/22 13:52:39;;;;;;;26.90;16.80;;;;;;;;;;4947425;28;20027;-46
2021/04/22 13:55:07;;;;;;;48.28;31.40;;;;;;;;;;4947570;28;20102;-48
2021/04/22 13:57:34;;;;;;;101.70;62.30;;;;;;;;;;4949225;28;20050;-46
2021/04/22 14:00:00;;;;;;;129.93;67.57;;;;;;;;;;4947766;28;20026;-47
2021/04/22 14:02:33;;;;;;;65.80;42.13;;;;;;;;;;4948245;28;20035;-46
2021/04/22 14:05:00;;;;;;;38.78;21.10;;;;;;;;;;4948403;28;20369;-47
2021/04/22 14:07:30;;;;;;;20.85;13.85;;;;;;;;;;4947149;28;20771;-46
2021/04/22 14:09:59;;;;;;;28.75;16.52;;;;;;;;;;4948455;28;20051;-47
2021/04/22 14:12:31;;;;;;;46.53;30.70;;;;;;;;;;4947287;28;20051;-47
2021/04/22 14:15:00;;;;;;;39.40;25.73;;;;;;;;;;4948225;28;20037;-47
2021/04/22 14:17:28;;;;;;;20.08;12.18;;;;;;;;;;4948544;28;20034;-47
2021/04/22 14:19:54;;;;;;;12.75;6.55;;;;;;;;;;4948281;28;20779;-46